createdAt,value
2022-08-05T00:00:52.539Z,97548.22
2022-08-05T00:02:53.995Z,97544.75
2022-08-05T00:04:56.147Z,97542.19
2022-08-05T00:06:57.581Z,97542.19
2022-08-05T00:09:00.578Z,97540.31
2022-08-05T00:11:02.103Z,97539.41
2022-08-05T00:13:03.411Z,97542.81
2022-08-05T00:15:54.081Z,97539.41
2022-08-05T00:17:26.015Z,97536.13
2022-08-05T00:19:33.295Z,97536.00
2022-08-05T00:21:42.649Z,97538.53
2022-08-05T00:23:46.365Z,97539.50
2022-08-05T00:25:54.509Z,97545.59
2022-08-05T00:27:55.840Z,97547.31
2022-08-05T00:29:57.938Z,97536.25
2022-08-05T00:32:13.109Z,97537.94
2022-08-05T00:34:55.131Z,97532.59
2022-08-05T00:37:11.419Z,97534.28
2022-08-05T00:38:59.624Z,97535.13
2022-08-05T00:41:01.046Z,97530.97
2022-08-05T00:43:02.541Z,97528.44
2022-08-05T00:45:11.602Z,97532.75
2022-08-05T00:47:16.397Z,97527.63
2022-08-05T00:49:20.081Z,97528.44
2022-08-05T00:51:51.741Z,97521.66
2022-08-05T00:54:01.456Z,97528.53
2022-08-05T00:56:04.079Z,97523.44
2022-08-05T00:58:05.382Z,97521.72
2022-08-05T01:00:07.255Z,97519.97
2022-08-05T01:02:12.558Z,97515.69
2022-08-05T01:04:19.935Z,97516.53
2022-08-05T01:06:32.612Z,97519.94
2022-08-05T01:08:43.010Z,97523.19
2022-08-05T01:10:52.250Z,97521.53
2022-08-05T01:13:12.966Z,97519.97
2022-08-05T01:15:35.296Z,97526.84
2022-08-05T01:17:39.911Z,97517.50
2022-08-05T01:20:00.740Z,97387.97
2022-08-05T01:22:02.620Z,97523.56
2022-08-05T01:24:14.147Z,97520.19
2022-08-05T01:26:15.846Z,97513.47
2022-08-05T01:28:17.149Z,97516.25
2022-08-05T01:30:18.851Z,97511.22
2022-08-05T01:32:20.630Z,97516.47
2022-08-05T01:34:21.954Z,97513.09
2022-08-05T01:36:28.695Z,97515.72
2022-08-05T01:38:30.309Z,97514.03
2022-08-05T01:40:32.161Z,97516.44
2022-08-05T01:42:33.462Z,97512.13
2022-08-05T01:44:35.461Z,97509.50
2022-08-05T01:46:42.735Z,97508.66
2022-08-05T01:48:49.713Z,97514.69
2022-08-05T01:50:51.510Z,97513.03
2022-08-05T01:52:52.871Z,97505.38
2022-08-05T01:54:54.351Z,97511.34
2022-08-05T01:58:29.164Z,97514.75
2022-08-05T01:59:16.975Z,97509.63
2022-08-05T02:01:24.562Z,97507.38
2022-08-05T02:03:32.118Z,97504.31
2022-08-05T02:05:35.950Z,97498.59
2022-08-05T02:07:37.980Z,97504.69
2022-08-05T02:09:39.279Z,97529.47
2022-08-05T02:11:42.133Z,97498.03
2022-08-05T02:13:53.189Z,97511.84
2022-08-05T02:15:55.404Z,97488.00
2022-08-05T02:18:31.170Z,97491.53
2022-08-05T02:20:20.508Z,97493.13
2022-08-05T02:22:26.597Z,97493.84
2022-08-05T02:24:28.437Z,97490.44
2022-08-05T02:26:29.776Z,97490.44
2022-08-05T02:28:33.108Z,97493.03
2022-08-05T02:30:37.850Z,97485.53
2022-08-05T02:32:53.299Z,97488.00
2022-08-05T02:34:55.236Z,97496.47
2022-08-05T02:36:56.607Z,97485.66
2022-08-05T02:38:58.367Z,97479.56
2022-08-05T02:41:01.052Z,97480.44
2022-08-05T02:43:16.114Z,97478.84
2022-08-05T02:45:17.750Z,97465.81
2022-08-05T02:47:19.130Z,97462.44
2022-08-05T02:49:21.982Z,97462.25
2022-08-05T02:52:01.059Z,97460.53
2022-08-05T02:53:45.071Z,97457.00
2022-08-05T02:55:54.244Z,97459.47
2022-08-05T02:58:11.379Z,97456.19
2022-08-05T03:00:14.993Z,97453.63
2022-08-05T03:02:16.295Z,97454.44
2022-08-05T03:04:17.643Z,97450.06
2022-08-05T03:06:54.363Z,97450.16
2022-08-05T03:08:42.337Z,97445.91
2022-08-05T03:10:44.369Z,97448.38
2022-08-05T03:15:06.862Z,97446.63
2022-08-05T03:17:09.171Z,97444.19
2022-08-05T03:19:12.749Z,97441.63
2022-08-05T03:21:18.682Z,97443.13
2022-08-05T03:23:20.798Z,97433.84
2022-08-05T03:25:33.752Z,97433.78
2022-08-05T03:27:59.736Z,97438.13
2022-08-05T03:30:08.593Z,97438.91
2022-08-05T03:32:10.500Z,97443.00
2022-08-05T03:34:12.319Z,97442.13
2022-08-05T03:36:13.649Z,97436.19
2022-08-05T03:38:15.531Z,97431.06
2022-08-05T03:40:31.478Z,97434.56
2022-08-05T03:42:41.598Z,97443.00
2022-08-05T03:44:52.941Z,97437.88
2022-08-05T03:46:54.275Z,97441.28
2022-08-05T03:48:55.787Z,97448.13
2022-08-05T03:50:59.108Z,97450.56
2022-08-05T03:55:51.579Z,97452.25
2022-08-05T03:56:06.286Z,97454.09
2022-08-05T03:58:01.118Z,97447.38
2022-08-05T04:00:02.461Z,97449.19
2022-08-05T04:02:04.089Z,97456.03
2022-08-05T04:04:10.531Z,97442.44
2022-08-05T04:06:12.174Z,97455.19
2022-08-05T04:08:14.774Z,97453.38
2022-08-05T04:10:38.213Z,97457.63
2022-08-05T04:14:39.944Z,97459.94
2022-08-05T04:16:41.254Z,97453.13
2022-08-05T04:18:42.710Z,97455.63
2022-08-05T04:20:55.720Z,97451.34
2022-08-05T04:22:57.247Z,97450.38
2022-08-05T04:24:58.552Z,97454.63
2022-08-05T04:27:02.035Z,97448.44
2022-08-05T04:29:07.482Z,97450.03
2022-08-05T04:31:10.551Z,97369.19
2022-08-05T04:33:12.029Z,97447.47
2022-08-05T04:35:19.821Z,97445.13
2022-08-05T04:37:21.486Z,97452.44
2022-08-05T04:39:42.671Z,97452.03
2022-08-05T04:41:44.395Z,97445.84
2022-08-05T04:43:51.973Z,97450.34
2022-08-05T04:45:54.750Z,97452.19
2022-08-05T04:47:56.564Z,97449.69
2022-08-05T04:50:02.556Z,97446.63
2022-08-05T04:52:12.264Z,97448.00
2022-08-05T04:54:14.874Z,97447.75
2022-08-05T04:56:34.436Z,97447.69
2022-08-05T04:58:37.792Z,97449.41
2022-08-05T05:00:39.104Z,97455.38
2022-08-05T05:02:43.144Z,97447.63
2022-08-05T05:04:49.680Z,97453.56
2022-08-05T05:06:57.386Z,97455.19
2022-08-05T05:08:59.136Z,97462.75
2022-08-05T05:11:02.043Z,97461.94
2022-08-05T05:13:03.885Z,97460.13
2022-08-05T05:15:05.841Z,97466.91
2022-08-05T05:17:12.251Z,97474.56
2022-08-05T05:19:23.664Z,97471.06
2022-08-05T05:21:28.867Z,97469.28
2022-08-05T05:23:50.353Z,97475.19
2022-08-05T05:25:55.718Z,97472.63
2022-08-05T05:27:57.583Z,97470.81
2022-08-05T05:30:04.022Z,97470.81
2022-08-05T05:32:06.035Z,97473.34
2022-08-05T05:34:13.899Z,97468.97
2022-08-05T05:36:16.903Z,97472.38
2022-08-05T05:38:22.516Z,97468.88
2022-08-05T05:40:28.715Z,97470.47
2022-08-05T05:42:31.255Z,97456.00
2022-08-05T05:44:36.730Z,97463.63
2022-08-05T05:46:39.002Z,97462.69
2022-08-05T05:48:41.855Z,97460.06
2022-08-05T05:50:45.442Z,97458.25
2022-08-05T05:52:46.748Z,97464.16
2022-08-05T05:54:50.495Z,97463.28
2022-08-05T05:56:52.563Z,97470.97
2022-08-05T05:58:54.299Z,97466.59
2022-08-05T06:00:57.092Z,97469.09
2022-08-05T06:02:58.438Z,97464.78
2022-08-05T06:05:00.255Z,97472.34
2022-08-05T06:07:02.827Z,97471.47
2022-08-05T06:09:04.262Z,97472.22
2022-08-05T06:11:05.582Z,97471.13
2022-08-05T06:13:07.869Z,97476.13
2022-08-05T06:15:12.391Z,97474.41
2022-08-05T06:17:31.099Z,97473.34
2022-08-05T06:19:34.447Z,97478.84
2022-08-05T06:21:38.331Z,97467.38
2022-08-05T06:23:44.039Z,97471.47
2022-08-05T06:26:13.251Z,97468.03
2022-08-05T06:28:12.385Z,97478.31
2022-08-05T06:30:22.790Z,97472.25
2022-08-05T06:32:28.964Z,97468.56
2022-08-05T06:34:30.713Z,97464.88
2022-08-05T06:36:45.989Z,97466.56
2022-08-05T06:38:54.733Z,97460.81
2022-08-05T06:40:56.411Z,97463.06
2022-08-05T06:42:58.080Z,97467.97
2022-08-05T06:44:59.379Z,97463.81
2022-08-05T06:47:02.258Z,97463.28
2022-08-05T06:49:07.585Z,97473.06
2022-08-05T06:51:12.003Z,97471.69
2022-08-05T06:53:29.642Z,97469.28
2022-08-05T06:55:31.408Z,97477.03
2022-08-05T06:57:57.166Z,97479.72
2022-08-05T06:59:59.279Z,97484.88
2022-08-05T07:02:02.022Z,97480.66
2022-08-05T07:04:03.623Z,97478.91
2022-08-05T07:06:06.059Z,97489.19
2022-08-05T07:08:16.409Z,97484.88
2022-08-05T07:10:17.711Z,97478.84
2022-08-05T07:12:38.984Z,97476.22
2022-08-05T07:15:08.960Z,97481.34
2022-08-05T07:18:02.124Z,97485.44
2022-08-05T07:20:10.482Z,97474.59
2022-08-05T07:22:00.690Z,97484.84
2022-08-05T07:24:02.679Z,97485.06
2022-08-05T07:26:04.042Z,97487.75
2022-08-05T07:28:08.282Z,97483.53
2022-08-05T07:30:22.203Z,97489.16
2022-08-05T07:32:29.660Z,97492.63
2022-08-05T07:34:31.028Z,97481.59
2022-08-05T07:36:33.682Z,97485.94
2022-08-05T07:38:43.491Z,97483.38
2022-08-05T07:40:45.472Z,97485.19
2022-08-05T07:42:56.852Z,97486.09
2022-08-05T07:45:00.385Z,97487.75
2022-08-05T07:47:01.833Z,97483.47
2022-08-05T07:49:09.315Z,97487.69
2022-08-05T07:51:23.793Z,97484.34
2022-08-05T07:53:36.650Z,97490.31
2022-08-05T07:56:06.288Z,97482.56
2022-08-05T07:58:09.435Z,97495.31
2022-08-05T08:00:30.229Z,97487.56
2022-08-05T08:03:15.407Z,97504.56
2022-08-05T08:04:53.608Z,97517.25
2022-08-05T08:06:55.395Z,97515.47
2022-08-05T08:08:58.208Z,97506.09
2022-08-05T08:11:00.666Z,97506.84
2022-08-05T08:13:02.183Z,97506.78
2022-08-05T08:15:04.322Z,97498.25
2022-08-05T08:17:10.688Z,97502.50
2022-08-05T08:20:10.866Z,97504.22
2022-08-05T08:21:38.561Z,97509.41
2022-08-05T08:24:02.310Z,97520.59
2022-08-05T08:26:04.457Z,97517.19
2022-08-05T08:28:18.037Z,97516.22
2022-08-05T08:30:33.919Z,97526.41
2022-08-05T08:32:39.838Z,97524.69
2022-08-05T08:34:43.132Z,97525.53
2022-08-05T08:36:47.626Z,97525.59
2022-08-05T08:38:57.085Z,97528.22
2022-08-05T08:40:58.655Z,97529.16
2022-08-05T08:43:20.981Z,97524.81
2022-08-05T08:45:26.565Z,97524.00
2022-08-05T08:48:06.618Z,97527.38
2022-08-05T08:50:23.069Z,97525.75
2022-08-05T08:52:13.244Z,97518.03
2022-08-05T08:54:15.301Z,97523.94
2022-08-05T08:56:17.219Z,97518.78
2022-08-05T08:58:19.574Z,97520.53
2022-08-05T09:00:38.655Z,97523.94
2022-08-05T09:02:41.132Z,97534.19
2022-08-05T09:04:58.589Z,97537.59
2022-08-05T09:07:03.930Z,97550.94
2022-08-05T09:09:20.831Z,97537.47
2022-08-05T09:11:50.470Z,97542.13
2022-08-05T09:14:09.149Z,97546.50
2022-08-05T09:16:09.279Z,97556.09
2022-08-05T09:18:18.175Z,97556.13
2022-08-05T09:20:36.140Z,97550.44
2022-08-05T09:22:38.504Z,97562.22
2022-08-05T09:24:53.300Z,97549.31
2022-08-05T09:26:56.219Z,97551.34
2022-08-05T09:29:00.319Z,97555.41
2022-08-05T09:31:22.252Z,97555.75
2022-08-05T09:33:35.065Z,97556.84
2022-08-05T09:35:36.739Z,97561.75
2022-08-05T09:38:16.341Z,97565.94
2022-08-05T09:39:59.691Z,97562.13
2022-08-05T09:42:01.029Z,97554.13
2022-08-05T09:44:04.717Z,97561.19
2022-08-05T09:46:11.890Z,97556.22
2022-08-05T09:48:13.318Z,97562.16
2022-08-05T09:50:18.119Z,97563.16
2022-08-05T09:52:45.141Z,97561.50
2022-08-05T09:54:46.651Z,97570.84
2022-08-05T09:56:52.242Z,97571.69
2022-08-05T09:58:53.875Z,97566.63
2022-08-05T10:00:55.209Z,97573.63
2022-08-05T10:02:58.378Z,97568.38
2022-08-05T10:05:00.304Z,97551.63
2022-08-05T10:07:01.745Z,97558.25
2022-08-05T10:09:27.489Z,97552.22
2022-08-05T10:11:35.049Z,97547.63
2022-08-05T10:13:47.493Z,97557.06
2022-08-05T10:15:49.676Z,97553.38
2022-08-05T10:17:56.872Z,97552.66
2022-08-05T10:20:03.662Z,97550.66
2022-08-05T10:22:29.575Z,97555.22
2022-08-05T10:24:31.773Z,97553.22
2022-08-05T10:26:33.928Z,97553.38
2022-08-05T10:28:36.635Z,97552.72
2022-08-05T10:32:03.005Z,97549.38
2022-08-05T10:33:01.336Z,97551.91
2022-08-05T10:35:04.081Z,97550.22
2022-08-05T10:37:05.416Z,97554.81
2022-08-05T10:39:11.603Z,97563.31
2022-08-05T10:41:23.461Z,97562.41
2022-08-05T10:43:31.082Z,97574.28
2022-08-05T10:45:40.372Z,97553.16
2022-08-05T10:47:47.020Z,97552.47
2022-08-05T10:50:31.521Z,97544.91
2022-08-05T10:52:28.591Z,97546.72
2022-08-05T10:54:32.696Z,97549.38
2022-08-05T10:56:36.272Z,97549.28
2022-08-05T10:58:48.696Z,97545.88
2022-08-05T11:00:55.271Z,97546.81
2022-08-05T11:03:24.676Z,97538.25
2022-08-05T11:05:27.438Z,97543.41
2022-08-05T11:07:33.247Z,97536.53
2022-08-05T11:10:09.571Z,97531.38
2022-08-05T11:12:11.519Z,97542.50
2022-08-05T11:14:13.169Z,97539.84
2022-08-05T11:16:14.475Z,97542.41
2022-08-05T11:18:16.137Z,97538.03
2022-08-05T11:20:18.483Z,97545.75
2022-08-05T11:22:20.136Z,97537.19
2022-08-05T11:24:30.337Z,97539.94
2022-08-05T11:26:33.357Z,97534.94
2022-08-05T11:28:35.884Z,97533.16
2022-08-05T11:30:37.426Z,97534.78
2022-08-05T11:32:43.002Z,97540.00
2022-08-05T11:34:54.115Z,97533.16
2022-08-05T11:36:56.186Z,97536.44
2022-08-05T11:38:58.350Z,97542.31
2022-08-05T11:41:14.019Z,97538.84
2022-08-05T11:43:21.442Z,97538.94
2022-08-05T11:46:15.045Z,97538.63
2022-08-05T11:48:04.023Z,97540.59
2022-08-05T11:50:05.362Z,97533.91
2022-08-05T11:52:08.436Z,97537.47
2022-08-05T11:54:13.875Z,97541.88
2022-08-05T11:56:15.401Z,97537.63
2022-08-05T11:58:18.700Z,97542.00
2022-08-05T12:00:20.339Z,97497.31
2022-08-05T12:02:30.380Z,97538.88
2022-08-05T12:04:33.430Z,97536.69
2022-08-05T12:06:34.740Z,97547.00
2022-08-05T12:08:36.088Z,97539.28
2022-08-05T12:10:44.939Z,97541.78
2022-08-05T12:13:00.250Z,97541.97
2022-08-05T12:15:01.836Z,97539.69
2022-08-05T12:17:04.571Z,97541.97
2022-08-05T12:20:17.043Z,97545.94
2022-08-05T12:21:48.291Z,97561.25
2022-08-05T12:23:50.004Z,97549.91
2022-08-05T12:25:53.384Z,97555.81
2022-08-05T12:27:54.815Z,97557.47
2022-08-05T12:29:57.467Z,97551.25
2022-08-05T12:32:02.111Z,97559.22
2022-08-05T12:34:03.751Z,97553.78
2022-08-05T12:36:07.167Z,97553.34
2022-08-05T12:38:10.900Z,97553.13
2022-08-05T12:40:26.371Z,97559.81
2022-08-05T12:42:29.926Z,97554.75
2022-08-05T12:44:34.094Z,97565.22
2022-08-05T12:46:35.747Z,97560.69
2022-08-05T12:48:37.526Z,97557.66
2022-08-05T12:50:38.874Z,97550.50
2022-08-05T12:52:42.840Z,97552.13
2022-08-05T12:54:44.299Z,97555.53
2022-08-05T12:56:45.920Z,97586.97
2022-08-05T12:58:54.756Z,97548.16
2022-08-05T13:02:00.104Z,97552.81
2022-08-05T13:03:22.375Z,97567.13
2022-08-05T13:05:24.325Z,97553.09
2022-08-05T13:07:59.220Z,97564.19
2022-08-05T13:09:57.082Z,97544.34
2022-08-05T13:12:03.380Z,97551.34
2022-08-05T13:14:07.645Z,97549.41
2022-08-05T13:16:09.170Z,97545.22
2022-08-05T13:18:12.087Z,97554.94
2022-08-05T13:20:24.155Z,97545.09
2022-08-05T13:22:27.984Z,97537.28
2022-08-05T13:24:44.940Z,97536.94
2022-08-05T13:26:52.645Z,97529.22
2022-08-05T13:28:53.964Z,97532.72
2022-08-05T13:30:55.378Z,97537.56
2022-08-05T13:33:01.633Z,97536.47
2022-08-05T13:35:03.364Z,97529.38
2022-08-05T13:37:05.431Z,97537.75
2022-08-05T13:40:13.614Z,97535.44
2022-08-05T13:41:37.568Z,97540.97
2022-08-05T13:43:44.528Z,97541.41
2022-08-05T13:45:47.295Z,97528.66
2022-08-05T13:48:08.611Z,97550.97
2022-08-05T13:50:16.275Z,97526.91
2022-08-05T13:52:18.050Z,97532.34
2022-08-05T13:54:21.115Z,97527.59
2022-08-05T13:56:26.556Z,97530.31
2022-08-05T13:58:31.010Z,97527.47
2022-08-05T14:00:32.534Z,97523.97
2022-08-05T14:02:35.669Z,97526.91
2022-08-05T14:04:55.789Z,97525.66
2022-08-05T14:06:58.688Z,97522.38
2022-08-05T14:09:18.499Z,97515.41
2022-08-05T14:11:23.114Z,97522.50
2022-08-05T14:13:25.536Z,97513.91
2022-08-05T14:16:07.798Z,97517.38
2022-08-05T14:17:49.096Z,97507.78
2022-08-05T14:19:54.559Z,97512.66
2022-08-05T14:22:10.388Z,97515.16
2022-08-05T14:24:13.359Z,97515.72
2022-08-05T14:26:36.775Z,97511.25
2022-08-05T14:28:52.315Z,97516.16
2022-08-05T14:30:53.844Z,97516.16
2022-08-05T14:32:55.167Z,97519.81
2022-08-05T14:34:58.127Z,97523.94
2022-08-05T14:36:59.786Z,97524.78
2022-08-05T14:39:02.928Z,97524.50
2022-08-05T14:41:06.065Z,97527.13
2022-08-05T14:43:08.390Z,97525.63
2022-08-05T14:45:12.350Z,97524.78
2022-08-05T14:47:13.652Z,97525.63
2022-08-05T14:49:15.267Z,97524.63
2022-08-05T14:51:16.583Z,97523.88
2022-08-05T14:53:19.084Z,97523.75
2022-08-05T14:55:20.426Z,97517.81
2022-08-05T14:57:22.918Z,97517.38
2022-08-05T14:59:35.909Z,97523.50
2022-08-05T15:01:48.342Z,97515.91
2022-08-05T15:03:50.643Z,97514.47
2022-08-05T15:06:07.298Z,97513.03
2022-08-05T15:08:38.039Z,97512.50
2022-08-05T15:10:35.328Z,97506.75
2022-08-05T15:12:57.694Z,97505.16
2022-08-05T15:14:58.771Z,97501.69
2022-08-05T15:17:00.102Z,97512.38
2022-08-05T15:19:01.408Z,97511.47
2022-08-05T15:21:07.711Z,97509.03
2022-08-05T15:23:09.374Z,97505.91
2022-08-05T15:25:11.829Z,97504.19
2022-08-05T15:27:15.863Z,97510.72
2022-08-05T15:29:21.346Z,97511.53
2022-08-05T15:31:23.553Z,97513.22
2022-08-05T15:34:18.646Z,97511.56
2022-08-05T15:35:57.204Z,97515.25
2022-08-05T15:38:34.522Z,97509.13
2022-08-05T15:40:59.323Z,97503.06
2022-08-05T15:42:56.218Z,97506.47
2022-08-05T15:45:01.809Z,97505.72
2022-08-05T15:47:03.705Z,97498.91
2022-08-05T15:49:11.431Z,97497.13
2022-08-05T15:51:14.778Z,97506.47
2022-08-05T15:53:17.825Z,97502.19
2022-08-05T15:55:24.595Z,97495.38
2022-08-05T15:57:27.822Z,97503.16
2022-08-05T15:59:34.612Z,97504.97
2022-08-05T16:01:39.916Z,97507.59
2022-08-05T16:03:54.402Z,97499.13
2022-08-05T16:05:56.958Z,97509.53
2022-08-05T16:07:58.356Z,97511.41
2022-08-05T16:10:01.517Z,97513.84
2022-08-05T16:12:03.643Z,97508.66
2022-08-05T16:14:04.938Z,97508.66
2022-08-05T16:16:06.347Z,97513.94
2022-08-05T16:18:09.119Z,97513.94
2022-08-05T16:20:12.006Z,97521.50
2022-08-05T16:22:15.381Z,97534.28
2022-08-05T16:24:41.145Z,97515.56
2022-08-05T16:26:38.278Z,97519.97
2022-08-05T16:28:41.410Z,97510.88
2022-08-05T16:30:42.790Z,97510.31
2022-08-05T16:32:46.184Z,97513.78
2022-08-05T16:34:48.060Z,97521.28
2022-08-05T16:36:52.232Z,97520.31
2022-08-05T16:38:54.321Z,97528.09
2022-08-05T16:41:00.328Z,97532.53
2022-08-05T16:43:02.512Z,97529.25
2022-08-05T16:46:02.791Z,97526.47
2022-08-05T16:47:35.978Z,97529.63
2022-08-05T16:49:39.063Z,97523.44
2022-08-05T16:51:50.272Z,97524.59
2022-08-05T16:54:04.274Z,97526.72
2022-08-05T16:56:10.206Z,97526.44
2022-08-05T16:58:13.099Z,97526.44
2022-08-05T17:00:25.958Z,97523.03
2022-08-05T17:02:35.484Z,97532.50
2022-08-05T17:04:36.791Z,97533.31
2022-08-05T17:06:42.004Z,97534.84
2022-08-05T17:08:53.645Z,97541.75
2022-08-05T17:10:55.598Z,97534.16
2022-08-05T17:12:57.414Z,97548.66
2022-08-05T17:14:59.072Z,97549.44
2022-08-05T17:17:00.434Z,97546.03
2022-08-05T17:19:07.794Z,97553.91
2022-08-05T17:21:10.851Z,97557.31
2022-08-05T17:24:03.817Z,97553.66
2022-08-05T17:25:39.914Z,97558.81
2022-08-05T17:27:42.193Z,97560.72
2022-08-05T17:29:43.495Z,97564.09
2022-08-05T17:31:57.168Z,97564.88
2022-08-05T17:34:00.123Z,97571.66
2022-08-05T17:36:09.153Z,97576.81
2022-08-05T17:38:11.572Z,97576.06
2022-08-05T17:40:22.257Z,97580.38
2022-08-05T17:42:30.166Z,97577.75
2022-08-05T17:44:34.035Z,97593.06
2022-08-05T17:46:36.699Z,97592.31
2022-08-05T17:48:38.051Z,97605.22
2022-08-05T17:50:39.771Z,97602.47
2022-08-05T17:52:53.429Z,97609.41
2022-08-05T17:54:56.425Z,97624.03
2022-08-05T17:56:57.749Z,97631.78
2022-08-05T17:58:59.970Z,97636.88
2022-08-05T18:01:01.291Z,97642.78
2022-08-05T18:03:02.617Z,97643.75
2022-08-05T18:05:06.459Z,97647.22
2022-08-05T18:07:12.332Z,97653.09
2022-08-05T18:09:15.211Z,97654.03
2022-08-05T18:11:24.053Z,97659.19
2022-08-05T18:13:36.403Z,97661.66
2022-08-05T18:15:38.695Z,97668.50
2022-08-05T18:18:01.166Z,97670.31
2022-08-05T18:20:01.552Z,97672.09
2022-08-05T18:22:07.166Z,97672.88
2022-08-05T18:24:09.436Z,97666.81
2022-08-05T18:26:14.008Z,97690.88
2022-08-05T18:28:21.778Z,97677.22
2022-08-05T18:30:23.475Z,97689.09
2022-08-05T18:32:29.533Z,97689.28
2022-08-05T18:34:41.329Z,97695.19
2022-08-05T18:36:44.244Z,97702.06
2022-08-05T18:38:45.546Z,97705.50
2022-08-05T18:41:56.093Z,97705.38
2022-08-05T18:43:09.061Z,97707.94
2022-08-05T18:45:17.932Z,97712.25
2022-08-05T18:47:21.094Z,97708.09
2022-08-05T18:49:57.308Z,97715.00
2022-08-05T18:52:18.732Z,97718.38
2022-08-05T18:54:34.678Z,97714.06
2022-08-05T18:56:35.996Z,97726.88
2022-08-05T18:58:39.324Z,97729.50
2022-08-05T19:00:44.382Z,97730.41
2022-08-05T19:02:49.681Z,97739.84
2022-08-05T19:04:54.742Z,97743.09
2022-08-05T19:07:04.594Z,97739.78
2022-08-05T19:09:05.900Z,97742.44
2022-08-05T19:11:14.305Z,97753.59
2022-08-05T19:13:16.158Z,97750.06
2022-08-05T19:15:57.146Z,97760.44
2022-08-05T19:17:59.807Z,97763.34
2022-08-05T19:20:00.362Z,97773.81
2022-08-05T19:22:04.334Z,97768.88
2022-08-05T19:24:12.343Z,97775.88
2022-08-05T19:26:14.608Z,97783.69
2022-08-05T19:28:17.717Z,97776.00
2022-08-05T19:30:20.626Z,97781.13
2022-08-05T19:32:22.015Z,97796.56
2022-08-05T19:34:28.416Z,97797.47
2022-08-05T19:36:31.635Z,97810.25
2022-08-05T19:38:32.940Z,97815.47
2022-08-05T19:40:37.213Z,97820.72
2022-08-05T19:42:39.112Z,97823.31
2022-08-05T19:44:45.084Z,97817.31
2022-08-05T19:46:46.864Z,97829.31
2022-08-05T19:48:48.524Z,97840.66
2022-08-05T19:50:49.868Z,97856.97
2022-08-05T19:52:52.567Z,97860.41
2022-08-05T19:54:53.886Z,97861.38
2022-08-05T19:56:55.259Z,97870.84
2022-08-05T19:58:56.562Z,97872.75
2022-08-05T20:00:58.522Z,97880.44
2022-08-05T20:03:00.547Z,97871.13
2022-08-05T20:05:09.658Z,97865.94
2022-08-05T20:07:47.993Z,97874.50
2022-08-05T20:09:55.180Z,97873.41
2022-08-05T20:11:58.184Z,97870.88
2022-08-05T20:14:12.065Z,97870.75
2022-08-05T20:16:15.676Z,97871.47
2022-08-05T20:18:34.041Z,97865.13
2022-08-05T20:20:37.852Z,97889.13
2022-08-05T20:22:41.454Z,97869.38
2022-08-05T20:24:45.502Z,97874.78
2022-08-05T20:26:46.851Z,97873.75
2022-08-05T20:28:50.401Z,97874.31
2022-08-05T20:30:52.078Z,97880.56
2022-08-05T20:32:53.382Z,97883.47
2022-08-05T20:34:54.754Z,97891.78
2022-08-05T20:36:56.207Z,97882.63
2022-08-05T20:38:58.071Z,97882.88
2022-08-05T20:40:59.495Z,97888.81
2022-08-05T20:43:06.313Z,97893.75
2022-08-05T20:45:07.626Z,97897.81
2022-08-05T20:47:09.461Z,97906.56
2022-08-05T20:49:12.007Z,97905.78
2022-08-05T20:51:15.034Z,97907.72
2022-08-05T20:53:40.641Z,97907.34
2022-08-05T20:55:56.094Z,97913.75
2022-08-05T20:57:59.640Z,97912.75
2022-08-05T21:00:21.008Z,97915.44
2022-08-05T21:02:26.828Z,97919.19
2022-08-05T21:04:30.238Z,97929.28
2022-08-05T21:06:31.707Z,97930.88
2022-08-05T21:08:41.766Z,97938.91
2022-08-05T21:10:48.690Z,97937.72
2022-08-05T21:12:58.099Z,97940.06
2022-08-05T21:15:12.105Z,97943.78
2022-08-05T21:17:14.200Z,97953.16
2022-08-05T21:19:15.502Z,97950.94
2022-08-05T21:21:16.862Z,97949.63
2022-08-05T21:23:18.172Z,97954.03
2022-08-05T21:25:19.479Z,97955.03
2022-08-05T21:27:25.257Z,97961.81
2022-08-05T21:29:31.340Z,97970.38
2022-08-05T21:31:41.560Z,97974.66
2022-08-05T21:33:43.151Z,97982.28
2022-08-05T21:35:55.870Z,97987.69
2022-08-05T21:38:00.514Z,97986.34
2022-08-05T21:40:01.820Z,97989.22
2022-08-05T21:42:03.173Z,97984.19
2022-08-05T21:44:04.996Z,97996.81
2022-08-05T21:46:06.411Z,97991.31
2022-08-05T21:48:08.558Z,97995.59
2022-08-05T21:50:10.196Z,97992.41
2022-08-05T21:52:16.476Z,97995.84
2022-08-05T21:54:31.128Z,97997.97
2022-08-05T21:56:32.678Z,98007.53
2022-08-05T21:58:34.627Z,98016.00
2022-08-05T22:00:38.129Z,98030.91
2022-08-05T22:02:42.729Z,98029.56
2022-08-05T22:04:44.679Z,98033.72
2022-08-05T22:06:50.441Z,98025.50
2022-08-05T22:08:52.577Z,98030.88
2022-08-05T22:10:54.006Z,98035.72
2022-08-05T22:12:55.314Z,98040.75
2022-08-05T22:14:58.899Z,98052.28
2022-08-05T22:17:03.754Z,98048.94
2022-08-05T22:19:08.905Z,98050.53
2022-08-05T22:21:26.715Z,98052.88
2022-08-05T22:24:02.403Z,98050.00
2022-08-05T22:26:23.945Z,98066.00
2022-08-05T22:28:25.574Z,98062.94
2022-08-05T22:30:32.463Z,98072.81
2022-08-05T22:32:36.754Z,98082.69
2022-08-05T22:34:38.343Z,98087.38
2022-08-05T22:36:41.879Z,98075.19
2022-08-05T22:38:48.238Z,98076.13
2022-08-05T22:40:55.166Z,98083.47
2022-08-05T22:42:56.748Z,98091.56
2022-08-05T22:44:59.602Z,98084.00
2022-08-05T22:47:00.923Z,98094.56
2022-08-05T22:49:07.313Z,98087.75
2022-08-05T22:51:15.667Z,98082.19
2022-08-05T22:53:24.566Z,98081.78
2022-08-05T22:55:57.058Z,98088.22
2022-08-05T22:57:58.358Z,98079.22
2022-08-05T22:59:59.701Z,98083.41
2022-08-05T23:02:05.685Z,98083.75
2022-08-05T23:04:09.207Z,98081.22
2022-08-05T23:06:11.532Z,98087.03
2022-08-05T23:08:12.890Z,98097.03
2022-08-05T23:10:16.413Z,98088.50
2022-08-05T23:12:23.821Z,98113.09
2022-08-05T23:14:32.423Z,97992.84
2022-08-05T23:16:52.805Z,98123.91
2022-08-05T23:18:54.260Z,98133.06
2022-08-05T23:20:56.963Z,98133.16
2022-08-05T23:22:59.727Z,98138.47
2022-08-05T23:25:01.092Z,98148.81
2022-08-05T23:27:02.392Z,98149.97
2022-08-05T23:29:04.669Z,98153.81
2022-08-05T23:31:17.554Z,98159.91
2022-08-05T23:33:26.611Z,98172.97
2022-08-05T23:35:40.487Z,98159.28
2022-08-05T23:37:42.383Z,98142.03
2022-08-05T23:39:53.791Z,98130.50
2022-08-05T23:41:56.350Z,98132.25
2022-08-05T23:44:04.779Z,98129.91
2022-08-05T23:46:20.852Z,98135.22
2022-08-05T23:48:23.183Z,98143.91
2022-08-05T23:50:27.703Z,98156.25
2022-08-05T23:52:36.096Z,98185.44
2022-08-05T23:54:51.573Z,98233.31
2022-08-05T23:56:52.882Z,98249.56
2022-08-05T23:58:54.267Z,98271.19
